METAR Data
IDs: Format: Raw Decoded Include TAF

Data at: 1102 UTC 26 Sep 2018

KTPF 261055Z AUTO 00000KT OVC100 A3006 RMK AO2 PWINO
KTPF 261035Z AUTO 12005KT OVC110 A3005 RMK AO2 PWINO
KTPF 261015Z AUTO 12005KT OVC110 A3005 RMK AO2 PWINO
KTPF 260955Z AUTO 12004KT OVC110 A3005 RMK AO2 PWINO
KTPF 260935Z AUTO 11003KT OVC110 A3005 RMK AO2 PWINO
KTPF 260915Z AUTO 10003KT OVC110 A3006 RMK AO2 PWINO
KTPF 260855Z AUTO 00000KT A3006 RMK AO2 PWINO
KTPF 260835Z AUTO 09003KT BKN100 OVC120 A3006 RMK AO2 PWINO
KTPF 260815Z AUTO 07003KT OVC100 A3006 RMK AO2 PWINO
KTPF 260755Z AUTO 08003KT A3007 RMK AO2 PWINO
KTPF 260735Z AUTO 07004KT A3007 RMK AO2 PWINO
KTPF 260715Z AUTO 07004KT BKN100 OVC110 A3008 RMK AO2 PWINO
KTPF 260655Z AUTO 08004KT OVC100 A3008 RMK AO2 PWINO
KTPF 260635Z AUTO 07006KT OVC110 A3009 RMK AO2 PWINO
KTPF 260615Z AUTO 08005KT A3009 RMK AO2 PWINO
KTPF 260555Z AUTO 09006KT OVC110 A3009 RMK AO2 PWINO
KTPF 260535Z AUTO 09005KT OVC110 A3009 RMK AO2 PWINO
KTPF 260515Z AUTO 08004KT A3009 RMK AO2 PWINO
KTPF 260455Z AUTO 09004KT 26/26 A3010 RMK AO2 PWINO
KTPF 260435Z AUTO 12005KT 26/26 A3011 RMK AO2 PWINO
KTPF 260415Z AUTO 13005KT 27/25 A3012 RMK AO2 PWINO
KTPF 260355Z AUTO 14006KT 27/25 A3012 RMK AO2 PWINO
KTPF 260335Z AUTO 12007KT 27/25 A3013 RMK AO2 PWINO
KTPF 260315Z AUTO 12008KT 27/25 A3012 RMK AO2 PWINO
KTPF 260255Z AUTO 11008KT OVC110 27/25 A3011 RMK AO2 PWINO
KTPF 260235Z AUTO 10007KT OVC100 27/25 A3010 RMK AO2 PWINO
KTPF 260215Z AUTO 09006KT 27/25 A3009 RMK AO2 PWINO
KTPF 260155Z AUTO 09003KT 27/25 A3008 RMK AO2 PWINO
KTPF 260135Z AUTO 10005KT OVC110 27/25 A3008 RMK AO2 PWINO
KTPF 260115Z AUTO 11005KT SCT060 OVC110 28/25 A3008 RMK AO2 PWINO
KTPF 260055Z AUTO 13006KT BKN060 BKN075 OVC110 28/25 A3007 RMK AO2 PWINO
KTPF 260035Z AUTO 11004KT BKN070 OVC090 28/25 A3006 RMK AO2 PWINO
KTPF 260015Z AUTO 10004KT BKN070 OVC110 28/26 A3006 RMK AO2 PWINO
KTPF 252355Z AUTO 00000KT OVC110 28/26 A3005 RMK AO2 PWINO
KTPF 252335Z AUTO 00000KT OVC100 27/27 A3003 RMK AO2 PWINO
KTPF 252315Z AUTO 00000KT OVC100 27/27 A3003 RMK AO2 PWINO
KTPF 252255Z AUTO 00000KT 27/27 A3003 RMK AO2 PWINO
KTPF 252235Z AUTO 00000KT 27/26 A3002 RMK AO2 PWINO
KTPF 252215Z AUTO 00000KT OVC100 28/26 A3002 RMK AO2 PWINO
KTPF 252155Z AUTO 08005KT BKN100 28/26 A3001 RMK AO2 P0001 PWINO
KTPF 252135Z AUTO 04004KT BKN090 BKN110 27/26 A3001 RMK AO2 P0001 PWINO
KTPF 252115Z AUTO 09003KT 27/25 A3003 RMK AO2 P0001 PWINO
KTPF 252055Z AUTO 08006KT 26/25 A3002 RMK AO2 P0018 PWINO
KTPF 252035Z AUTO 10014G19KT SCT034 BKN065 OVC100 28/25 A3003 RMK AO2 PWINO
KTPF 252015Z AUTO 06008KT SCT041 BKN065 OVC100 32/24 A3003 RMK AO2 PWINO
KTPF 251955Z AUTO 04010KT SCT041 SCT055 OVC100 33/24 A3003 RMK AO2 PWINO
KTPF 251935Z AUTO 06004KT SCT042 OVC090 33/24 A3004 RMK AO2 PWINO
KTPF 251915Z AUTO 09007KT BKN042 BKN049 OVC100 32/24 A3005 RMK AO2 PWINO
KTPF 251855Z AUTO 17004KT SCT042 SCT048 BKN100 33/23 A3005 RMK AO2 PWINO
KTPF 251835Z AUTO 16005KT SCT050 BKN100 BKN120 33/23 A3006 RMK AO2 PWINO
KTPF 251815Z AUTO 09005KT BKN050 BKN080 OVC110 31/23 A3007 RMK AO2 PWINO
KTPF 251755Z AUTO 12003KT SCT040 BKN050 BKN095 31/23 A3007 RMK AO2 PWINO
KTPF 251735Z AUTO 10003KT SCT038 SCT045 BKN060 32/23 A3009 RMK AO2 PWINO
KTPF 251715Z AUTO 12004KT BKN036 BKN048 OVC110 31/23 A3009 RMK AO2 PWINO
KTPF 251655Z AUTO 09005KT BKN034 OVC039 31/24 A3009 RMK AO2 PWINO
KTPF 251635Z AUTO 12004KT BKN034 BKN090 BKN110 31/25 A3009 RMK AO2 PWINO
KTPF 251615Z AUTO 11004KT OVC030 30/24 A3010 RMK AO2 PWINO
KTPF 251555Z AUTO 09006KT BKN028 BKN080 OVC100 30/24 A3010 RMK AO2 PWINO
KTPF 251535Z AUTO 11004KT BKN028 BKN080 OVC100 30/25 A3010 RMK AO2 PWINO
KTPF 251515Z AUTO 12007KT SCT028 SCT070 OVC100 30/25 A3010 RMK AO2 PWINO
KTPF 251455Z AUTO 12006KT OVC100 30/24 A3011 RMK AO2 PWINO
KTPF 251435Z AUTO 13009KT OVC110 30/24 A3010 RMK AO2 PWINO
KTPF 251415Z AUTO 10007KT OVC100 29/24 A3010 RMK AO2 PWINO
KTPF 251355Z AUTO 12008KT OVC110 29/25 A3010 RMK AO2 PWINO
KTPF 251335Z AUTO 10006KT OVC100 28/25 A3010 RMK AO2 PWINO
KTPF 251315Z AUTO 10007KT OVC110 A3010 RMK AO2 PWINO
KTPF 251255Z AUTO 09005KT OVC100 A3009 RMK AO2 PWINO
KTPF 251235Z AUTO 09004KT OVC100 A3009 RMK AO2 PWINO
KTPF 251215Z AUTO 09005KT OVC100 A3008 RMK AO2 PWINO
KTPF 251155Z AUTO 09004KT OVC100 A3008 RMK AO2 PWINO
KTPF 251135Z AUTO 09005KT OVC110 A3008 RMK AO2 PWINO
KTPF 251115Z AUTO 09005KT OVC100 A3007 RMK AO2 PWINO
KTPF 251055Z AUTO 10005KT OVC110 A3007 RMK AO2 PWINO
KTPF 251035Z AUTO 07005KT OVC110 A3006 RMK AO2 PWINO
KTPF 251015Z AUTO 08004KT OVC110 A3006 RMK AO2 PWINO
KTPF 250955Z AUTO 07004KT OVC110 A3005 RMK AO2 PWINO
KTPF 250935Z AUTO 08005KT OVC100 A3005 RMK AO2 PWINO
KTPF 250915Z AUTO 08006KT OVC110 A3005 RMK AO2 PWINO
KTPF 250855Z AUTO 07006KT OVC100 A3004 RMK AO2 PWINO
KTPF 250835Z AUTO 08004KT OVC100 A3004 RMK AO2 PWINO
KTPF 250815Z AUTO 08004KT OVC100 A3004 RMK AO2 PWINO
KTPF 250735Z AUTO 07005KT OVC110 A3004 RMK AO2 PWINO
KTPF 250715Z AUTO 09006KT OVC110 A3004 RMK AO2 PWINO
KTPF 250655Z AUTO 07004KT BKN110 A3005 RMK AO2 PWINO
KTPF 250635Z AUTO 08004KT OVC110 A3006 RMK AO2 PWINO
KTPF 250615Z AUTO 07005KT OVC110 A3006 RMK AO2 PWINO
KTPF 250555Z AUTO 08006KT OVC110 A3007 RMK AO2 PWINO
KTPF 250515Z AUTO 07006KT OVC110 26/26 A3006 RMK AO2 PWINO
KTPF 250455Z AUTO 08007KT OVC110 26/25 A3006 RMK AO2 PWINO
KTPF 250435Z AUTO 08007KT OVC110 26/26 A3007 RMK AO2 PWINO
KTPF 250415Z AUTO 08006KT 26/26 A3008 RMK AO2 PWINO
KTPF 250355Z AUTO 09004KT 26/25 A3008 RMK AO2 PWINO
KTPF 250335Z AUTO 08003KT A3009 RMK AO2 PWINO
KTPF 250315Z AUTO 00000KT A3008 RMK AO2 PWINO
KTPF 250255Z AUTO 00000KT BKN110 26/26 A3007 RMK AO2 PWINO
KTPF 250235Z AUTO 08003KT BKN100 A3006 RMK AO2 PWINO
KTPF 250215Z AUTO 08004KT BKN110 26/26 A3005 RMK AO2 PWINO
KTPF 250155Z AUTO 05004KT OVC110 26/26 A3005 RMK AO2 PWINO
KTPF 250135Z AUTO 07006KT OVC110 26/26 A3004 RMK AO2 PWINO
KTPF 250115Z AUTO 06004KT OVC110 A3004 RMK AO2 PWINO
KTPF 250055Z AUTO 00000KT OVC100 A3003 RMK AO2 PWINO
KTPF 250035Z AUTO 31003KT A3003 RMK AO2 PWINO
KTPF 250015Z AUTO 00000KT 25/25 A3003 RMK AO2 PWINO
KTPF 242355Z AUTO 00000KT 25/25 A3002 RMK AO2 PWINO
KTPF 242335Z AUTO 00000KT 26/24 A3004 RMK AO2 PWINO
KTPF 242315Z AUTO 05006KT 26/24 A3002 RMK AO2 PWINO